Terminal Aerodrome Forecast (TAF)

TAF

Data at: 0820 UTC 04 Dec 2021

TAF for:NVSC (Sola/Vanua Lava Arpt, TO, VU) issued at 0430 UTC 04 Dec 2021
Text:TAF NVSC 040430Z 0406/0506 11005KT 9999 SCT020 BKN040 OVC100
Forecast period:0600 UTC 04 December 2021 to 0600 UTC 05 December 2021
Forecast type:FROM: standard forecast or significant change
Winds:from the ESE (110 degrees) at 6 MPH (5 knots; 2.6 m/s)
Visibility:6 or more sm (10+ km)
Ceiling:4000 feet AGL
Clouds: scattered clouds at 2000 feet AGL, broken clouds at 4000 feet AGL, overcast cloud deck at 10000 feet AGL
Text:INTER 0406/0410 8000 SHRA FEW010 BKN018 OVC090
Forecast period:0600 to 1000 UTC 04 December 2021
Forecast type:TEMPORARY: The following changes expected for less than half the time period
Visibility: 5 sm ( 8 km)
Ceiling:1800 feet AGL
Clouds: few clouds at 1000 feet AGL, broken clouds at 1800 feet AGL, overcast cloud deck at 9000 feet AGL
Weather:SHRA (rain showers)
Text:INTER 0408/0412 7000 -TSRA SCT010 BKN016 FEW022CB OVC090
Forecast period:0800 to 1200 UTC 04 December 2021
Forecast type:TEMPORARY: The following changes expected for less than half the time period
Visibility: 4 sm ( 7 km)
Ceiling:1600 feet AGL
Clouds: scattered clouds at 1000 feet AGL, broken clouds at 1600 feet AGL, few clouds at 2200 feet AGL
Weather:-TSRA (light rain associated with thunderstorm(s))

TAF

Data at: 0820 UTC 04 Dec 2021

TAF for:NVSG (Longana Arpt, PA, VU) issued at 0430 UTC 04 Dec 2021
Text:TAF NVSG 040430Z 0406/0506 10005KT 9999 SCT020 BKN040 OVC100
Forecast period:0600 UTC 04 December 2021 to 0600 UTC 05 December 2021
Forecast type:FROM: standard forecast or significant change
Winds:from the E (100 degrees) at 6 MPH (5 knots; 2.6 m/s)
Visibility:6 or more sm (10+ km)
Ceiling:4000 feet AGL
Clouds: scattered clouds at 2000 feet AGL, broken clouds at 4000 feet AGL, overcast cloud deck at 10000 feet AGL
Text:INTER 0406/0410 8000 SHRA FEW010 BKN018 OVC090
Forecast period:0600 to 1000 UTC 04 December 2021
Forecast type:TEMPORARY: The following changes expected for less than half the time period
Visibility: 5 sm ( 8 km)
Ceiling:1800 feet AGL
Clouds: few clouds at 1000 feet AGL, broken clouds at 1800 feet AGL, overcast cloud deck at 9000 feet AGL
Weather:SHRA (rain showers)
Text:PROB40
Forecast period:0800 to 1200 UTC 04 December 2021
Forecast type:TEMPORARY: The following changes expected for less than half the time period
Visibility: 4 sm ( 7 km)
Ceiling:1600 feet AGL
Clouds: scattered clouds at 1000 feet AGL, broken clouds at 1600 feet AGL, few clouds at 2200 feet AGL
Weather:-TSRA (light rain associated with thunderstorm(s))

TAF

Data at: 0820 UTC 04 Dec 2021

TAF for:NVSS (Santo/Pekoa Intl, SA, VU) issued at 0430 UTC 04 Dec 2021
Text:TAF NVSS 040430Z 0406/0506 08005KT 9999 SCT020 BKN040 OVC100
Forecast period:0600 UTC 04 December 2021 to 0600 UTC 05 December 2021
Forecast type:FROM: standard forecast or significant change
Winds:from the E (80 degrees) at 6 MPH (5 knots; 2.6 m/s)
Visibility:6 or more sm (10+ km)
Ceiling:4000 feet AGL
Clouds: scattered clouds at 2000 feet AGL, broken clouds at 4000 feet AGL, overcast cloud deck at 10000 feet AGL
Text:INTER 0406/0410 8000 SHRA FEW010 BKN018 OVC090
Forecast period:0600 to 1000 UTC 04 December 2021
Forecast type:TEMPORARY: The following changes expected for less than half the time period
Visibility: 5 sm ( 8 km)
Ceiling:1800 feet AGL
Clouds: few clouds at 1000 feet AGL, broken clouds at 1800 feet AGL, overcast cloud deck at 9000 feet AGL
Weather:SHRA (rain showers)
Text:PROB40
Forecast period:0800 to 1200 UTC 04 December 2021
Forecast type:TEMPORARY: The following changes expected for less than half the time period
Visibility: 4 sm ( 7 km)
Ceiling:1600 feet AGL
Clouds: scattered clouds at 1000 feet AGL, broken clouds at 1600 feet AGL, few clouds at 2200 feet AGL
Weather:-TSRA (light rain associated with thunderstorm(s))

TAF

Data at: 0820 UTC 04 Dec 2021

TAF for:NVSL (Malekula Isl/Lamap, MA, VU) issued at 0430 UTC 04 Dec 2021
Text:TAF NVSL 040430Z 0406/0506 10008KT 9999 SCT020 BKN040 OVC100
Forecast period:0600 UTC 04 December 2021 to 0600 UTC 05 December 2021
Forecast type:FROM: standard forecast or significant change
Winds:from the E (100 degrees) at 9 MPH (8 knots; 4.1 m/s)
Visibility:6 or more sm (10+ km)
Ceiling:4000 feet AGL
Clouds: scattered clouds at 2000 feet AGL, broken clouds at 4000 feet AGL, overcast cloud deck at 10000 feet AGL
Text:PROB40
Forecast period:0600 to 1200 UTC 04 December 2021
Forecast type:TEMPORARY: The following changes expected for less than half the time period
Visibility: 6 sm ( 9 km)
Ceiling:1800 feet AGL
Clouds: broken clouds at 1800 feet AGL, overcast cloud deck at 9000 feet AGL
Weather:SHRA (rain showers)

TAF

Data at: 0820 UTC 04 Dec 2021

TAF for:NVSP (Norsup Arpt, MA, VU) issued at 0430 UTC 04 Dec 2021
Text:TAF NVSP 040430Z 0406/0506 11008KT 9999 SCT020 BKN040 OVC100
Forecast period:0600 UTC 04 December 2021 to 0600 UTC 05 December 2021
Forecast type:FROM: standard forecast or significant change
Winds:from the ESE (110 degrees) at 9 MPH (8 knots; 4.1 m/s)
Visibility:6 or more sm (10+ km)
Ceiling:4000 feet AGL
Clouds: scattered clouds at 2000 feet AGL, broken clouds at 4000 feet AGL, overcast cloud deck at 10000 feet AGL
Text:PROB40
Forecast period:0600 to 1200 UTC 04 December 2021
Forecast type:TEMPORARY: The following changes expected for less than half the time period
Visibility: 6 sm ( 9 km)
Ceiling:1800 feet AGL
Clouds: few clouds at 1000 feet AGL, broken clouds at 1800 feet AGL, overcast cloud deck at 9000 feet AGL
Weather:SHRA (rain showers)

TAF

Data at: 0820 UTC 04 Dec 2021

TAF for:NVVV (Efate/Bauerfield Int, SE, VU) issued at 0430 UTC 04 Dec 2021
Text:TAF NVVV 040430Z 0406/0506 10008KT 9999 FEW020 SCT120
Forecast period:0600 UTC 04 December 2021 to 0600 UTC 05 December 2021
Forecast type:FROM: standard forecast or significant change
Winds:from the E (100 degrees) at 9 MPH (8 knots; 4.1 m/s)
Visibility:6 or more sm (10+ km)
Ceiling:at least 12,000 feet AGL
Clouds: few clouds at 2000 feet AGL, scattered clouds at 12000 feet AGL
Text:PROB40
Forecast period:0600 to 1200 UTC 04 December 2021
Forecast type:TEMPORARY: The following changes expected for less than half the time period
Visibility: 6 sm ( 9 km)
Ceiling:1800 feet AGL
Clouds: broken clouds at 1800 feet AGL, overcast cloud deck at 9000 feet AGL
Weather:SHRA (rain showers)

TAF

Data at: 0820 UTC 04 Dec 2021

TAF for:NVVW (Tanna Arpt, TA, VU) issued at 0430 UTC 04 Dec 2021
Text:TAF NVVW 040430Z 0406/0506 08010KT 9999 SCT020 BKN040
Forecast period:0600 UTC 04 December 2021 to 0600 UTC 05 December 2021
Forecast type:FROM: standard forecast or significant change
Winds:from the E (80 degrees) at 12 MPH (10 knots; 5.1 m/s)
Visibility:6 or more sm (10+ km)
Ceiling:4000 feet AGL
Clouds: scattered clouds at 2000 feet AGL, broken clouds at 4000 feet AGL
Text:PROB40
Forecast period:0600 to 1200 UTC 04 December 2021
Forecast type:TEMPORARY: The following changes expected for less than half the time period
Visibility: 6 sm ( 9 km)
Ceiling:1800 feet AGL
Clouds: broken clouds at 1800 feet AGL, overcast cloud deck at 3800 feet AGL
Weather:SHRA (rain showers)

TAF

Data at: 0820 UTC 04 Dec 2021

TAF for:NVVA (Aneityum/Mystery Isl, TA, VU) issued at 0430 UTC 04 Dec 2021
Text:TAF NVVA 040430Z 0406/0506 09010KT 9999 SCT020 BKN040
Forecast period:0600 UTC 04 December 2021 to 0600 UTC 05 December 2021
Forecast type:FROM: standard forecast or significant change
Winds:from the E (90 degrees) at 12 MPH (10 knots; 5.1 m/s)
Visibility:6 or more sm (10+ km)
Ceiling:4000 feet AGL
Clouds: scattered clouds at 2000 feet AGL, broken clouds at 4000 feet AGL
Text:PROB40
Forecast period:0600 to 1200 UTC 04 December 2021
Forecast type:TEMPORARY: The following changes expected for less than half the time period
Visibility: 6 sm ( 9 km)
Ceiling:1800 feet AGL
Clouds: broken clouds at 1800 feet AGL, overcast cloud deck at 3800 feet AGL
Weather:SHRA (rain showers)

TAF

Data at: 0820 UTC 04 Dec 2021

TAF NVVV 040430Z 0406/0506 10008KT 9999 FEW020 SCT120
  PROB40
  INTER 0406/0412 9000 SHRA BKN018 OVC090
TAF NVSC 040430Z 0406/0506 11005KT 9999 SCT020 BKN040 OVC100
  INTER 0406/0410 8000 SHRA FEW010 BKN018 OVC090
  INTER 0408/0412 7000 -TSRA SCT010 BKN016 FEW022CB OVC090
TAF NVSG 040430Z 0406/0506 10005KT 9999 SCT020 BKN040 OVC100
  INTER 0406/0410 8000 SHRA FEW010 BKN018 OVC090
  PROB40
  INTER 0408/0412 7000 -TSRA SCT010 BKN016 FEW022CB OVC090
TAF NVSS 040430Z 0406/0506 08005KT 9999 SCT020 BKN040 OVC100
  INTER 0406/0410 8000 SHRA FEW010 BKN018 OVC090
  PROB40
  INTER 0408/0412 7000 -TSRA SCT010 BKN016 FEW022CB OVC090
TAF NVSL 040430Z 0406/0506 10008KT 9999 SCT020 BKN040 OVC100
  PROB40
  INTER 0406/0412 9000 SHRA BKN018 OVC090
TAF NVSP 040430Z 0406/0506 11008KT 9999 SCT020 BKN040 OVC100
  PROB40
  INTER 0406/0412 9000 SHRA FEW010 BKN018 OVC090
TAF NVVW 040430Z 0406/0506 08010KT 9999 SCT020 BKN040
  PROB40
  INTER 0406/0412 9000 SHRA BKN018 OVC038
TAF NVVA 040430Z 0406/0506 09010KT 9999 SCT020 BKN040
  PROB40
  INTER 0406/0412 9000 SHRA BKN018 OVC038